sensor_id;sensor_type;location;lat;lon;timestamp;pressure;altitude;pressure_sealevel;temperature;humidity
54546;BME280;40444;45.184;9.850;2022-12-13T00:02:02;100517.22;;;0.51;100.00
54546;BME280;40444;45.184;9.850;2022-12-13T00:04:37;100498.53;;;0.56;100.00
54546;BME280;40444;45.184;9.850;2022-12-13T00:07:05;100501.47;;;0.67;100.00
54546;BME280;40444;45.184;9.850;2022-12-13T00:09:34;100499.78;;;0.66;100.00
54546;BME280;40444;45.184;9.850;2022-12-13T00:12:03;100493.19;;;0.74;100.00
54546;BME280;40444;45.184;9.850;2022-12-13T00:14:33;100485.88;;;0.80;100.00
54546;BME280;40444;45.184;9.850;2022-12-13T00:17:21;100489.59;;;0.75;100.00
54546;BME280;40444;45.184;9.850;2022-12-13T00:19:50;100493.97;;;0.77;100.00
54546;BME280;40444;45.184;9.850;2022-12-13T00:22:18;100487.16;;;0.90;100.00
54546;BME280;40444;45.184;9.850;2022-12-13T00:24:49;100489.31;;;0.99;100.00
54546;BME280;40444;45.184;9.850;2022-12-13T00:27:17;100487.88;;;1.09;100.00
54546;BME280;40444;45.184;9.850;2022-12-13T00:29:47;100482.47;;;1.12;100.00
54546;BME280;40444;45.184;9.850;2022-12-13T00:32:16;100492.84;;;1.15;100.00
54546;BME280;40444;45.184;9.850;2022-12-13T00:34:44;100486.56;;;1.18;100.00
54546;BME280;40444;45.184;9.850;2022-12-13T00:37:12;100485.53;;;1.20;100.00
54546;BME280;40444;45.184;9.850;2022-12-13T00:39:54;100492.28;;;1.26;100.00
54546;BME280;40444;45.184;9.850;2022-12-13T00:42:22;100486.75;;;1.31;100.00
54546;BME280;40444;45.184;9.850;2022-12-13T00:44:52;100475.16;;;1.33;100.00
54546;BME280;40444;45.184;9.850;2022-12-13T00:47:20;100489.06;;;1.37;100.00
54546;BME280;40444;45.184;9.850;2022-12-13T00:49:49;100495.53;;;1.31;100.00
54546;BME280;40444;45.184;9.850;2022-12-13T00:52:18;100491.84;;;1.34;100.00
54546;BME280;40444;45.184;9.850;2022-12-13T00:54:46;100484.88;;;1.33;100.00
54546;BME280;40444;45.184;9.850;2022-12-13T00:57:15;100482.25;;;1.33;100.00
54546;BME280;40444;45.184;9.850;2022-12-13T00:59:44;100477.31;;;1.26;100.00
54546;BME280;40444;45.184;9.850;2022-12-13T01:02:15;100485.81;;;1.32;100.00
54546;BME280;40444;45.184;9.850;2022-12-13T01:04:43;100480.53;;;1.32;100.00
54546;BME280;40444;45.184;9.850;2022-12-13T01:07:11;100477.81;;;1.33;100.00
54546;BME280;40444;45.184;9.850;2022-12-13T01:09:40;100472.63;;;1.32;100.00
54546;BME280;40444;45.184;9.850;2022-12-13T01:12:09;100478.59;;;1.35;100.00
54546;BME280;40444;45.184;9.850;2022-12-13T01:14:40;100456.78;;;1.32;100.00
54546;BME280;40444;45.184;9.850;2022-12-13T01:17:09;100470.06;;;1.30;100.00
54546;BME280;40444;45.184;9.850;2022-12-13T01:19:37;100468.09;;;1.34;100.00
54546;BME280;40444;45.184;9.850;2022-12-13T01:22:06;100472.38;;;1.36;100.00
54546;BME280;40444;45.184;9.850;2022-12-13T01:24:36;100481.94;;;1.39;100.00
54546;BME280;40444;45.184;9.850;2022-12-13T01:27:04;100475.16;;;1.33;100.00
54546;BME280;40444;45.184;9.850;2022-12-13T01:29:32;100478.06;;;1.29;100.00
54546;BME280;40444;45.184;9.850;2022-12-13T01:32:01;100471.81;;;1.14;100.00
54546;BME280;40444;45.184;9.850;2022-12-13T01:34:30;100468.19;;;1.16;100.00
54546;BME280;40444;45.184;9.850;2022-12-13T01:36:58;100472.56;;;1.16;100.00
54546;BME280;40444;45.184;9.850;2022-12-13T01:39:27;100471.41;;;1.21;100.00
54546;BME280;40444;45.184;9.850;2022-12-13T01:41:56;100481.28;;;1.18;100.00
54546;BME280;40444;45.184;9.850;2022-12-13T01:49:58;100448.75;;;1.17;100.00
54546;BME280;40444;45.184;9.850;2022-12-13T01:52:29;100455.97;;;1.14;100.00
54546;BME280;40444;45.184;9.850;2022-12-13T01:55:00;100453.94;;;1.19;100.00
54546;BME280;40444;45.184;9.850;2022-12-13T01:57:32;100461.94;;;1.17;100.00
54546;BME280;40444;45.184;9.850;2022-12-13T02:00:03;100469.78;;;1.19;100.00
54546;BME280;40444;45.184;9.850;2022-12-13T02:02:33;100467.38;;;1.14;100.00
54546;BME280;40444;45.184;9.850;2022-12-13T02:07:32;100474.84;;;1.06;100.00
54546;BME280;40444;45.184;9.850;2022-12-13T02:10:04;100473.28;;;1.02;100.00
54546;BME280;40444;45.184;9.850;2022-12-13T02:12:35;100461.66;;;1.06;100.00
54546;BME280;40444;45.184;9.850;2022-12-13T02:15:09;100459.94;;;1.05;100.00
54546;BME280;40444;45.184;9.850;2022-12-13T02:18:17;100450.94;;;1.09;100.00
54546;BME280;40444;45.184;9.850;2022-12-13T02:29:23;100459.34;;;1.00;100.00
54546;BME280;40444;45.184;9.850;2022-12-13T02:32:11;100453.22;;;0.99;100.00
54546;BME280;40444;45.184;9.850;2022-12-13T02:34:48;100450.41;;;1.02;100.00
54546;BME280;40444;45.184;9.850;2022-12-13T02:37:29;100452.38;;;0.99;100.00
54546;BME280;40444;45.184;9.850;2022-12-13T02:40:06;100451.94;;;1.07;100.00
54546;BME280;40444;45.184;9.850;2022-12-13T02:42:49;100447.59;;;1.06;100.00
54546;BME280;40444;45.184;9.850;2022-12-13T02:45:40;100447.47;;;1.09;100.00
54546;BME280;40444;45.184;9.850;2022-12-13T02:48:13;100439.06;;;1.18;100.00
54546;BME280;40444;45.184;9.850;2022-12-13T02:50:43;100435.47;;;1.19;100.00
54546;BME280;40444;45.184;9.850;2022-12-13T02:53:14;100435.63;;;1.16;100.00
54546;BME280;40444;45.184;9.850;2022-12-13T02:55:43;100424.91;;;1.19;100.00
54546;BME280;40444;45.184;9.850;2022-12-13T02:58:15;100430.78;;;1.24;100.00
54546;BME280;40444;45.184;9.850;2022-12-13T03:04:16;100440.84;;;1.17;100.00
54546;BME280;40444;45.184;9.850;2022-12-13T03:12:29;100438.91;;;1.21;100.00
54546;BME280;40444;45.184;9.850;2022-12-13T03:15:41;100443.47;;;1.17;100.00
54546;BME280;40444;45.184;9.850;2022-12-13T03:18:15;100443.50;;;1.00;100.00
54546;BME280;40444;45.184;9.850;2022-12-13T03:20:51;100441.28;;;0.92;100.00
54546;BME280;40444;45.184;9.850;2022-12-13T03:23:21;100442.06;;;0.94;100.00
54546;BME280;40444;45.184;9.850;2022-12-13T03:25:52;100432.59;;;0.90;100.00
54546;BME280;40444;45.184;9.850;2022-12-13T03:28:22;100436.78;;;0.94;100.00
54546;BME280;40444;45.184;9.850;2022-12-13T03:30:51;100432.13;;;0.99;100.00
54546;BME280;40444;45.184;9.850;2022-12-13T03:33:20;100434.41;;;1.06;100.00
54546;BME280;40444;45.184;9.850;2022-12-13T03:35:50;100421.81;;;1.11;100.00
54546;BME280;40444;45.184;9.850;2022-12-13T03:38:18;100418.44;;;1.09;100.00
54546;BME280;40444;45.184;9.850;2022-12-13T03:40:55;100420.22;;;1.08;100.00
54546;BME280;40444;45.184;9.850;2022-12-13T03:43:25;100410.19;;;1.15;100.00
54546;BME280;40444;45.184;9.850;2022-12-13T03:45:54;100413.59;;;1.17;100.00
54546;BME280;40444;45.184;9.850;2022-12-13T03:48:23;100411.81;;;1.17;100.00
54546;BME280;40444;45.184;9.850;2022-12-13T03:50:53;100411.63;;;1.20;100.00
54546;BME280;40444;45.184;9.850;2022-12-13T03:53:24;100414.97;;;1.24;100.00
54546;BME280;40444;45.184;9.850;2022-12-13T03:56:02;100423.41;;;1.31;100.00
54546;BME280;40444;45.184;9.850;2022-12-13T03:58:31;100423.22;;;1.34;100.00
54546;BME280;40444;45.184;9.850;2022-12-13T04:01:08;100408.16;;;1.36;100.00
54546;BME280;40444;45.184;9.850;2022-12-13T04:03:37;100410.66;;;1.39;100.00
54546;BME280;40444;45.184;9.850;2022-12-13T04:06:07;100404.44;;;1.40;100.00
54546;BME280;40444;45.184;9.850;2022-12-13T04:08:37;100408.66;;;1.42;100.00
54546;BME280;40444;45.184;9.850;2022-12-13T04:11:06;100403.22;;;1.45;100.00
54546;BME280;40444;45.184;9.850;2022-12-13T04:14:07;100395.47;;;1.42;100.00
54546;BME280;40444;45.184;9.850;2022-12-13T04:16:38;100408.50;;;1.45;100.00
54546;BME280;40444;45.184;9.850;2022-12-13T04:19:14;100403.50;;;1.41;100.00
54546;BME280;40444;45.184;9.850;2022-12-13T04:21:52;100408.78;;;1.41;100.00
54546;BME280;40444;45.184;9.850;2022-12-13T04:24:23;100406.03;;;1.42;100.00
54546;BME280;40444;45.184;9.850;2022-12-13T04:27:00;100404.44;;;1.40;100.00
54546;BME280;40444;45.184;9.850;2022-12-13T04:29:29;100405.19;;;1.42;100.00
54546;BME280;40444;45.184;9.850;2022-12-13T04:32:03;100405.97;;;1.44;100.00
54546;BME280;40444;45.184;9.850;2022-12-13T04:34:52;100403.13;;;1.47;100.00
54546;BME280;40444;45.184;9.850;2022-12-13T04:37:29;100406.66;;;1.47;100.00
54546;BME280;40444;45.184;9.850;2022-12-13T04:39:57;100413.69;;;1.47;100.00
54546;BME280;40444;45.184;9.850;2022-12-13T04:42:27;100420.78;;;1.46;100.00
54546;BME280;40444;45.184;9.850;2022-12-13T04:44:56;100409.47;;;1.44;100.00
54546;BME280;40444;45.184;9.850;2022-12-13T04:47:25;100407.81;;;1.42;100.00
54546;BME280;40444;45.184;9.850;2022-12-13T04:50:07;100406.22;;;1.39;100.00
54546;BME280;40444;45.184;9.850;2022-12-13T04:52:40;100406.03;;;1.42;100.00
54546;BME280;40444;45.184;9.850;2022-12-13T04:55:09;100403.41;;;1.42;100.00
54546;BME280;40444;45.184;9.850;2022-12-13T04:57:37;100404.19;;;1.44;100.00
54546;BME280;40444;45.184;9.850;2022-12-13T05:00:09;100401.38;;;1.47;100.00
54546;BME280;40444;45.184;9.850;2022-12-13T05:02:38;100395.91;;;1.50;100.00
54546;BME280;40444;45.184;9.850;2022-12-13T05:05:09;100393.47;;;1.47;100.00
54546;BME280;40444;45.184;9.850;2022-12-13T05:07:38;100396.94;;;1.48;100.00
54546;BME280;40444;45.184;9.850;2022-12-13T05:10:10;100392.50;;;1.48;100.00
54546;BME280;40444;45.184;9.850;2022-12-13T05:12:38;100393.28;;;1.50;100.00
54546;BME280;40444;45.184;9.850;2022-12-13T05:15:08;100387.81;;;1.54;100.00
54546;BME280;40444;45.184;9.850;2022-12-13T05:17:37;100387.66;;;1.57;100.00
54546;BME280;40444;45.184;9.850;2022-12-13T05:20:05;100395.50;;;1.58;100.00
54546;BME280;40444;45.184;9.850;2022-12-13T05:22:33;100398.97;;;1.59;100.00
54546;BME280;40444;45.184;9.850;2022-12-13T05:25:05;100397.97;;;1.61;100.00
54546;BME280;40444;45.184;9.850;2022-12-13T05:27:33;100400.50;;;1.63;100.00
54546;BME280;40444;45.184;9.850;2022-12-13T05:30:03;100398.81;;;1.62;100.00
54546;BME280;40444;45.184;9.850;2022-12-13T05:32:35;100403.16;;;1.63;100.00
54546;BME280;40444;45.184;9.850;2022-12-13T05:35:09;100398.81;;;1.62;100.00
54546;BME280;40444;45.184;9.850;2022-12-13T05:37:38;100403.91;;;1.65;100.00
54546;BME280;40444;45.184;9.850;2022-12-13T05:40:07;100395.91;;;1.66;100.00
54546;BME280;40444;45.184;9.850;2022-12-13T17:44:35;100375.28;;;1.10;100.00
54546;BME280;40444;45.184;9.850;2022-12-13T17:47:04;100374.53;;;1.23;100.00
54546;BME280;40444;45.184;9.850;2022-12-13T17:49:33;100378.88;;;1.40;100.00
54546;BME280;40444;45.184;9.850;2022-12-13T17:52:01;100385.94;;;1.56;100.00
54546;BME280;40444;45.184;9.850;2022-12-13T17:54:30;100394.88;;;1.69;100.00
54546;BME280;40444;45.184;9.850;2022-12-13T17:56:59;100393.44;;;1.79;100.00
54546;BME280;40444;45.184;9.850;2022-12-13T17:59:27;100398.09;;;1.90;100.00
54546;BME280;40444;45.184;9.850;2022-12-13T18:01:55;100394.00;;;2.00;100.00
54546;BME280;40444;45.184;9.850;2022-12-13T18:04:24;100387.53;;;2.06;100.00
54546;BME280;40444;45.184;9.850;2022-12-13T18:06:52;100395.94;;;2.12;100.00
54546;BME280;40444;45.184;9.850;2022-12-13T18:09:21;100391.16;;;2.19;100.00
54546;BME280;40444;45.184;9.850;2022-12-13T18:11:49;100390.97;;;2.22;100.00
54546;BME280;40444;45.184;9.850;2022-12-13T18:14:19;100389.94;;;2.24;100.00
54546;BME280;40444;45.184;9.850;2022-12-13T18:16:48;100388.06;;;2.26;100.00
54546;BME280;40444;45.184;9.850;2022-12-13T18:19:16;100388.63;;;2.32;100.00
54546;BME280;40444;45.184;9.850;2022-12-13T18:21:44;100379.69;;;2.34;100.00
54546;BME280;40444;45.184;9.850;2022-12-13T18:24:13;100381.31;;;2.37;100.00
54546;BME280;40444;45.184;9.850;2022-12-13T18:26:42;100380.25;;;2.39;100.00
54546;BME280;40444;45.184;9.850;2022-12-13T18:29:10;100382.91;;;2.39;100.00
54546;BME280;40444;45.184;9.850;2022-12-13T18:31:39;100378.38;;;2.41;100.00
54546;BME280;40444;45.184;9.850;2022-12-13T18:34:08;100377.44;;;2.42;100.00
54546;BME280;40444;45.184;9.850;2022-12-13T18:36:36;100373.84;;;2.43;100.00
54546;BME280;40444;45.184;9.850;2022-12-13T18:39:06;100372.91;;;2.44;100.00
54546;BME280;40444;45.184;9.850;2022-12-13T18:41:35;100380.81;;;2.44;100.00
54546;BME280;40444;45.184;9.850;2022-12-13T18:44:04;100371.19;;;2.43;100.00
54546;BME280;40444;45.184;9.850;2022-12-13T18:46:37;100368.56;;;2.43;100.00
54546;BME280;40444;45.184;9.850;2022-12-13T18:49:12;100371.31;;;2.42;100.00
54546;BME280;40444;45.184;9.850;2022-12-13T18:51:41;100358.09;;;2.42;100.00
54546;BME280;40444;45.184;9.850;2022-12-13T18:54:09;100370.34;;;2.43;100.00
54546;BME280;40444;45.184;9.850;2022-12-13T18:56:38;100366.88;;;2.42;100.00
54546;BME280;40444;45.184;9.850;2022-12-13T18:59:07;100372.91;;;2.44;100.00
54546;BME280;40444;45.184;9.850;2022-12-13T19:01:35;100371.09;;;2.45;100.00
54546;BME280;40444;45.184;9.850;2022-12-13T19:04:03;100384.25;;;2.46;100.00
54546;BME280;40444;45.184;9.850;2022-12-13T19:06:32;100388.69;;;2.46;100.00
54546;BME280;40444;45.184;9.850;2022-12-13T19:09:00;100393.88;;;2.47;100.00
54546;BME280;40444;45.184;9.850;2022-12-13T19:11:28;100392.94;;;2.48;100.00
54546;BME280;40444;45.184;9.850;2022-12-13T19:13:58;100376.09;;;2.49;100.00
54546;BME280;40444;45.184;9.850;2022-12-13T19:16:26;100384.03;;;2.49;100.00
54546;BME280;40444;45.184;9.850;2022-12-13T19:18:56;100381.41;;;2.49;100.00
54546;BME280;40444;45.184;9.850;2022-12-13T19:21:25;100381.41;;;2.49;100.00
54546;BME280;40444;45.184;9.850;2022-12-13T19:23:56;100373.47;;;2.49;100.00
54546;BME280;40444;45.184;9.850;2022-12-13T19:26:26;100365.53;;;2.49;100.00
54546;BME280;40444;45.184;9.850;2022-12-13T19:28:57;100381.41;;;2.49;100.00
54546;BME280;40444;45.184;9.850;2022-12-13T19:31:25;100383.88;;;2.52;100.00
54546;BME280;40444;45.184;9.850;2022-12-13T19:34:02;100383.13;;;2.50;100.00
54546;BME280;40444;45.184;9.850;2022-12-13T19:36:31;100377.06;;;2.48;100.00
54546;BME280;40444;45.184;9.850;2022-12-13T19:38:59;100377.91;;;2.49;100.00
54546;BME280;40444;45.184;9.850;2022-12-13T19:41:28;100371.78;;;2.48;100.00
54546;BME280;40444;45.184;9.850;2022-12-13T19:43:56;100368.28;;;2.48;100.00
54546;BME280;40444;45.184;9.850;2022-12-13T19:46:26;100369.91;;;2.50;100.00
54546;BME280;40444;45.184;9.850;2022-12-13T19:48:58;100380.38;;;2.52;100.00
54546;BME280;40444;45.184;9.850;2022-12-13T19:51:26;100370.75;;;2.51;100.00
54546;BME280;40444;45.184;9.850;2022-12-13T19:53:54;100384.81;;;2.51;100.00
54546;BME280;40444;45.184;9.850;2022-12-13T19:56:23;100375.09;;;2.52;100.00
54546;BME280;40444;45.184;9.850;2022-12-13T19:58:51;100386.63;;;2.51;100.00
54546;BME280;40444;45.184;9.850;2022-12-13T20:01:19;100377.72;;;2.52;100.00
54546;BME280;40444;45.184;9.850;2022-12-13T20:03:48;100382.19;;;2.51;100.00
54546;BME280;40444;45.184;9.850;2022-12-13T20:06:19;100383.03;;;2.52;100.00
54546;BME280;40444;45.184;9.850;2022-12-13T20:08:48;100374.16;;;2.53;100.00
54546;BME280;40444;45.184;9.850;2022-12-13T20:11:20;100376.78;;;2.53;100.00
54546;BME280;40444;45.184;9.850;2022-12-13T20:13:52;100375.09;;;2.52;100.00
54546;BME280;40444;45.184;9.850;2022-12-13T20:16:24;100381.22;;;2.52;100.00
54546;BME280;40444;45.184;9.850;2022-12-13T20:18:58;100385.66;;;2.52;100.00
54546;BME280;40444;45.184;9.850;2022-12-13T20:21:27;100389.16;;;2.52;100.00
54546;BME280;40444;45.184;9.850;2022-12-13T20:23:56;100390.97;;;2.52;100.00
54546;BME280;40444;45.184;9.850;2022-12-13T20:26:27;100388.31;;;2.52;100.00
54546;BME280;40444;45.184;9.850;2022-12-13T20:28:56;100392.59;;;2.55;100.00
54546;BME280;40444;45.184;9.850;2022-12-13T20:31:32;100386.41;;;2.54;100.00
54546;BME280;40444;45.184;9.850;2022-12-13T20:34:02;100393.44;;;2.55;100.00
54546;BME280;40444;45.184;9.850;2022-12-13T20:36:31;100393.31;;;2.57;100.00
54546;BME280;40444;45.184;9.850;2022-12-13T20:39:01;100396.06;;;2.55;100.00
54546;BME280;40444;45.184;9.850;2022-12-13T20:41:31;100389.00;;;2.56;100.00
54546;BME280;40444;45.184;9.850;2022-12-13T20:44:01;100387.19;;;2.56;100.00
54546;BME280;40444;45.184;9.850;2022-12-13T20:46:33;100379.25;;;2.56;100.00
54546;BME280;40444;45.184;9.850;2022-12-13T20:49:03;100373.97;;;2.56;100.00
54546;BME280;40444;45.184;9.850;2022-12-13T20:51:34;100375.75;;;2.56;100.00
54546;BME280;40444;45.184;9.850;2022-12-13T20:54:03;100378.41;;;2.56;100.00
54546;BME280;40444;45.184;9.850;2022-12-13T20:56:34;100383.69;;;2.56;100.00
